Leon — D5BH4 — position and weather

sailwx.info

Track history (hours):
 
Tides and Currents Weather Stations Pressure Air Temp Water Temp Dewpoint Dewpoint Depression Visibility Wind Speed Wind Dir Waves Ship Positions

Leon

Last reported at 2015-May-22 09:33 UTC. Time now 2015-May-22 10:01 UTC.
Position N 51°03' E 002°10'.

Length 95 m; draft 4.6 m.

Type: Ship (hazmat cat C). MMSI: 636015519.

Date/timePositionNaut miles runAvg speedWind from/ knotsBaromVisibWave heightAir tempDewpointWater temp
2015-May-22 09:33N 51°03' E 002°10'7 6.2
2015-May-22 08:27N 51°03' E 002°21'1 1.3
2015-May-22 07:33N 51°03' E 002°19'0 0.0
2015-May-22 06:33N 51°03' E 002°19'0 0.0
2015-May-22 05:33N 51°03' E 002°19'0 0.0
2015-May-22 04:33N 51°03' E 002°19'0 0.0
2015-May-22 03:20N 51°03' E 002°19'0 0.0
2015-May-22 02:21N 51°03' E 002°19'0 0.0
2015-May-22 01:32N 51°03' E 002°19'0 0.0
2015-May-22 00:31N 51°03' E 002°19'0 0.0
2015-May-21 23:32N 51°03' E 002°19'0 0.2
2015-May-21 22:34N 51°03' E 002°19'0 0.0
2015-May-21 21:33N 51°03' E 002°19'0 0.0
2015-May-21 20:32N 51°03' E 002°19'0 0.0
2015-May-21 19:31N 51°03' E 002°19'0 0.0
2015-May-21 18:34N 51°03' E 002°19'0 0.0
2015-May-21 17:33N 51°03' E 002°19'0 0.0
2015-May-21 16:33N 51°03' E 002°19'0 0.0
2015-May-21 15:34N 51°03' E 002°19'0 0.0
2015-May-21 14:33N 51°03' E 002°19'0 0.2
2015-May-21 13:33N 51°03' E 002°20'1 0.8
2015-May-21 12:33N 51°03' E 002°21'0 0.0
2015-May-21 11:34N 51°03' E 002°21'0 0.0
2015-May-21 10:34N 51°03' E 002°21'0 0.0
2015-May-21 09:31N 51°03' E 002°21'0 0.0
2015-May-21 08:26N 51°03' E 002°21'0 0.0
2015-May-21 07:32N 51°03' E 002°21'0 0.0
2015-May-21 06:29N 51°03' E 002°21'0 0.0
2015-May-21 05:33N 51°03' E 002°21'0 0.0
2015-May-21 04:32N 51°03' E 002°21'0 0.0
2015-May-21 03:29N 51°03' E 002°21'0 0.0
2015-May-21 02:33N 51°03' E 002°21'1 0.7
2015-May-21 01:19N 51°03' E 002°19'0 0.1
2015-May-21 00:33N 51°03' E 002°19'0 0.0
2015-May-20 23:33N 51°03' E 002°19'0 0.0
2015-May-20 22:32N 51°03' E 002°19'0 0.0
2015-May-20 21:34N 51°03' E 002°19'0 0.0
2015-May-20 20:33N 51°03' E 002°19'0 0.0
2015-May-20 19:33N 51°03' E 002°19'0 0.0
2015-May-20 18:28N 51°03' E 002°19'0 0.0
2015-May-20 17:32N 51°03' E 002°19'0 0.0
2015-May-20 16:24N 51°03' E 002°19'0 0.0
2015-May-20 15:32N 51°03' E 002°19'0 0.0
2015-May-20 14:26N 51°03' E 002°19'0 0.0
2015-May-20 13:10N 51°03' E 002°19'0 0.0
2015-May-20 12:32N 51°03' E 002°19'1 1.1
2015-May-20 11:27N 51°03' E 002°21'8 9.1
2015-May-20 10:33N 51°03' E 002°08'11 8.7
2015-May-20 09:18N 51°02' E 001°51'1 1.5
2015-May-20 08:29N 51°03' E 001°50'0 0.0
2015-May-20 07:17N 51°03' E 001°51'0 0.0
2015-May-20 06:32N 51°03' E 001°51'0 0.1
2015-May-20 05:24N 51°03' E 001°51'0 0.1
2015-May-20 04:32N 51°03' E 001°51'0 0.0
2015-May-20 03:32N 51°03' E 001°51'0 0.0
2015-May-20 02:32N 51°03' E 001°51'0 0.0
2015-May-20 01:20N 51°03' E 001°51'0 0.0
2015-May-20 00:32N 51°03' E 001°51'0 0.0
2015-May-19 23:08N 51°03' E 001°51'0 0.1
2015-May-19 22:26N 51°03' E 001°51'0 0.1
2015-May-19 21:26N 51°03' E 001°50'0 0.0
2015-May-19 20:32N 51°03' E 001°50'0 0.0
2015-May-19 19:32N 51°03' E 001°50'0 0.0
2015-May-19 18:32N 51°03' E 001°51'0 0.2
2015-May-19 17:29N 51°03' E 001°51'0 0.1
2015-May-19 16:32N 51°03' E 001°51'0 0.0
2015-May-19 15:14N 51°03' E 001°51'0 0.0
2015-May-19 14:20N 51°03' E 001°51'0 0.0
2015-May-19 13:32N 51°03' E 001°51'0 0.0
2015-May-19 12:14N 51°03' E 001°51'0 0.1
2015-May-19 11:17N 51°03' E 001°51'0 0.1
2015-May-19 10:32N 51°03' E 001°50'1 1.5
2015-May-19 09:33N 51°05' E 001°49'8 7.7
2015-May-19 08:32N 51°03' E 002°02'1111.0
2015-May-19 07:33N 51°04' E 002°19'1 1.2
2015-May-19 06:33N 51°03' E 002°21'0 0.2
2015-May-19 04:22N 51°03' E 002°21'0 0.0
2015-May-19 03:31N 51°03' E 002°21'0 0.0
2015-May-19 02:27N 51°03' E 002°21'0 0.0
2015-May-19 01:31N 51°03' E 002°21'0 0.0
2015-May-19 00:30N 51°03' E 002°21'0 0.0
2015-May-18 23:29N 51°03' E 002°21'0 0.0
2015-May-18 22:32N 51°03' E 002°21'0 0.0
2015-May-18 21:33N 51°03' E 002°21'0 0.0
2015-May-18 20:30N 51°03' E 002°21'0 0.0
2015-May-18 19:32N 51°03' E 002°21'0 0.0
2015-May-18 18:29N 51°03' E 002°21'0 0.4
2015-May-18 17:32N 51°03' E 002°21'5 4.0
2015-May-18 16:15N 51°04' E 002°13'811.5
2015-May-18 15:31N 51°02' E 001°60'7 5.8
2015-May-18 14:22N 51°05' E 001°50'0 0.4
2015-May-18 13:16N 51°05' E 001°50'0 0.1
2015-May-18 12:28N 51°05' E 001°50'0 0.0
2015-May-18 11:07N 51°05' E 001°50'0 0.0
2015-May-18 10:31N 51°05' E 001°50'0 0.0
2015-May-18 09:25N 51°05' E 001°50'0 0.1
2015-May-18 08:10N 51°05' E 001°49'0 0.0
2015-May-18 07:31N 51°05' E 001°49'0 0.1
2015-May-18 06:31N 51°05' E 001°49'0 0.2
2015-May-18 05:31N 51°05' E 001°50'0 0.0
2015-May-18 04:31N 51°05' E 001°50'0 0.0
2015-May-18 03:28N 51°05' E 001°50'0 0.0
2015-May-18 02:28N 51°05' E 001°50'0 0.0
2015-May-18 01:25N 51°05' E 001°50'0 0.0
2015-May-18 00:28N 51°05' E 001°50'0 0.0
2015-May-17 23:19N 51°05' E 001°50'0 0.0
2015-May-17 22:16N 51°05' E 001°50'0 0.0
2015-May-17 21:28N 51°05' E 001°50'0 0.2
2015-May-17 20:31N 51°05' E 001°49'0 0.0
2015-May-17 19:31N 51°05' E 001°49'0 0.1
2015-May-17 18:22N 51°05' E 001°50'0 0.0
2015-May-17 17:28N 51°05' E 001°50'0 0.1
2015-May-17 16:28N 51°05' E 001°50'0 0.1
2015-May-17 15:22N 51°05' E 001°50'3 3.4
2015-May-17 14:33N 51°03' E 001°52'9 9.1
2015-May-17 13:33N 51°03' E 002°07'4 0.4
2015-May-17 03:23N 51°01' E 002°11'0 0.0
2015-May-16 23:32N 51°01' E 002°11'2 1.4
2015-May-16 22:28N 51°02' E 002°10'1112.3
2015-May-16 21:33N 51°03' E 001°52'1 1.4
2015-May-16 20:34N 51°03' E 001°50'0 0.1
2015-May-16 19:33N 51°03' E 001°50'5 4.8
2015-May-16 18:33N 51°04' E 001°42'1010.1
2015-May-16 17:33N 51°14' E 001°46'1313.2
2015-May-16 16:33N 51°25' E 001°57'1110.7
2015-May-16 15:33N 51°21' E 002°14'1110.7
2015-May-16 14:33N 51°23' E 002°31'1010.3
2015-May-16 13:33N 51°22' E 002°47'10 9.2
2015-May-16 12:31N 51°24' E 003°02'16 8.1
2015-May-16 10:33N 51°25' E 003°28'7 6.8
2015-May-16 09:33N 51°26' E 003°38'3 2.8
2015-May-16 08:25N 51°27' E 003°43'0 0.0
2015-May-16 07:31N 51°27' E 003°43'0 0.0
2015-May-16 06:31N 51°27' E 003°43'0 0.0
2015-May-16 05:31N 51°27' E 003°43'0 0.0
2015-May-16 04:07N 51°27' E 003°43'0 0.0
2015-May-16 03:31N 51°27' E 003°43'0 0.0
2015-May-16 02:31N 51°27' E 003°43'0 0.0
2015-May-16 01:25N 51°27' E 003°43'0 0.0
2015-May-16 00:19N 51°27' E 003°43'0 0.0
2015-May-15 23:25N 51°27' E 003°43'0 0.0
2015-May-15 22:16N 51°27' E 003°43'0 0.0
2015-May-15 20:22N 51°27' E 003°43'0 0.0
2015-May-15 18:19N 51°27' E 003°43'0 0.0
2015-May-15 17:33N 51°27' E 003°43'4 4.4
2015-May-15 16:33N 51°26' E 003°36'9 9.2
2015-May-15 15:33N 51°32' E 003°25'20 9.4
2015-May-15 13:27N 51°51' E 003°15'20 9.9
2015-May-15 11:26N 52°10' E 003°22'12710.7
2015-May-14 23:33N 54°03' E 004°58'1211.4
2015-May-14 22:32N 54°13' E 005°08'7911.0
2015-May-14 15:20N 55°14' E 006°37'911.2
2015-May-14 14:33N 55°22' E 006°42'1111.1
2015-May-14 13:33N 55°32' E 006°49'17110.1
2015-May-13 20:31N 57°50' E 009°53'10 9.3
2015-May-13 19:28N 57°50' E 010°11'9 9.4
2015-May-13 18:33N 57°51' E 010°27'10 9.6
2015-May-13 17:31N 57°51' E 010°46'9 9.6
2015-May-13 16:33N 57°48' E 011°02'9 8.9
2015-May-13 15:33N 57°43' E 011°17'9 8.9
2015-May-13 14:33N 57°38' E 011°31'7 6.7
2015-May-13 13:31N 57°34' E 011°40'0 0.1
2015-May-13 12:28N 57°34' E 011°40'0 0.0
2015-May-13 11:31N 57°34' E 011°40'0 0.0
2015-May-13 10:22N 57°34' E 011°40'0 0.0
2015-May-13 09:28N 57°34' E 011°40'0 0.0
2015-May-13 08:25N 57°34' E 011°40'0 0.0
2015-May-13 07:28N 57°34' E 011°40'0 0.0
2015-May-13 06:31N 57°34' E 011°40'0 0.0
2015-May-13 05:31N 57°34' E 011°40'0 0.0
2015-May-13 04:31N 57°34' E 011°40'0 0.0
2015-May-13 03:28N 57°34' E 011°40'0 0.0
2015-May-13 02:31N 57°34' E 011°40'0 0.0
2015-May-13 01:31N 57°34' E 011°40'0 0.0
2015-May-13 00:32N 57°34' E 011°40'0 0.0
2015-May-12 23:29N 57°34' E 011°40'0 0.0
2015-May-12 22:32N 57°34' E 011°40'0 0.0
2015-May-12 21:32N 57°34' E 011°40'0 0.0
2015-May-12 20:32N 57°34' E 011°40'0 0.0
2015-May-12 19:29N 57°34' E 011°40'0 0.0
2015-May-12 18:32N 57°34' E 011°40'0 0.0
2015-May-12 17:29N 57°34' E 011°40'0 0.0
2015-May-12 16:32N 57°34' E 011°40'0 0.0
2015-May-12 15:32N 57°34' E 011°40'0 0.0
2015-May-12 14:32N 57°34' E 011°40'0 0.1
2015-May-12 13:26N 57°34' E 011°40'0 0.0
2015-May-12 12:32N 57°34' E 011°40'0 0.0
2015-May-12 11:29N 57°34' E 011°40'0 0.0
2015-May-12 10:32N 57°34' E 011°40'  
Track history (hours):
 
Tides and Currents Weather Stations Pressure Air Temp Water Temp Dewpoint Dewpoint Depression Visibility Wind Speed Wind Dir Waves Ship Positions

Leon

Last reported at 2015-May-22 09:33 UTC. Time now 2015-May-22 10:01 UTC.
Position N 51°03' E 002°10'.

Length 95 m; draft 4.6 m.

Type: Ship (hazmat cat C). MMSI: 636015519.

Date/timePositionNaut miles runAvg speedWind from/ knotsBaromVisibWave heightAir tempDewpointWater temp
2015-May-22 09:33N 51°03' E 002°10'7 6.2
2015-May-22 08:27N 51°03' E 002°21'1 1.3
2015-May-22 07:33N 51°03' E 002°19'0 0.0
2015-May-22 06:33N 51°03' E 002°19'0 0.0
2015-May-22 05:33N 51°03' E 002°19'0 0.0
2015-May-22 04:33N 51°03' E 002°19'0 0.0
2015-May-22 03:20N 51°03' E 002°19'0 0.0
2015-May-22 02:21N 51°03' E 002°19'0 0.0
2015-May-22 01:32N 51°03' E 002°19'0 0.0
2015-May-22 00:31N 51°03' E 002°19'0 0.0
2015-May-21 23:32N 51°03' E 002°19'0 0.2
2015-May-21 22:34N 51°03' E 002°19'0 0.0
2015-May-21 21:33N 51°03' E 002°19'0 0.0
2015-May-21 20:32N 51°03' E 002°19'0 0.0
2015-May-21 19:31N 51°03' E 002°19'0 0.0
2015-May-21 18:34N 51°03' E 002°19'0 0.0
2015-May-21 17:33N 51°03' E 002°19'0 0.0
2015-May-21 16:33N 51°03' E 002°19'0 0.0
2015-May-21 15:34N 51°03' E 002°19'0 0.0
2015-May-21 14:33N 51°03' E 002°19'0 0.2
2015-May-21 13:33N 51°03' E 002°20'1 0.8
2015-May-21 12:33N 51°03' E 002°21'0 0.0
2015-May-21 11:34N 51°03' E 002°21'0 0.0
2015-May-21 10:34N 51°03' E 002°21'0 0.0
2015-May-21 09:31N 51°03' E 002°21'0 0.0
2015-May-21 08:26N 51°03' E 002°21'0 0.0
2015-May-21 07:32N 51°03' E 002°21'0 0.0
2015-May-21 06:29N 51°03' E 002°21'0 0.0
2015-May-21 05:33N 51°03' E 002°21'0 0.0
2015-May-21 04:32N 51°03' E 002°21'0 0.0
2015-May-21 03:29N 51°03' E 002°21'0 0.0
2015-May-21 02:33N 51°03' E 002°21'1 0.7
2015-May-21 01:19N 51°03' E 002°19'0 0.1
2015-May-21 00:33N 51°03' E 002°19'0 0.0
2015-May-20 23:33N 51°03' E 002°19'0 0.0
2015-May-20 22:32N 51°03' E 002°19'0 0.0
2015-May-20 21:34N 51°03' E 002°19'0 0.0
2015-May-20 20:33N 51°03' E 002°19'0 0.0
2015-May-20 19:33N 51°03' E 002°19'0 0.0
2015-May-20 18:28N 51°03' E 002°19'0 0.0
2015-May-20 17:32N 51°03' E 002°19'0 0.0
2015-May-20 16:24N 51°03' E 002°19'0 0.0
2015-May-20 15:32N 51°03' E 002°19'0 0.0
2015-May-20 14:26N 51°03' E 002°19'0 0.0
2015-May-20 13:10N 51°03' E 002°19'0 0.0
2015-May-20 12:32N 51°03' E 002°19'1 1.1
2015-May-20 11:27N 51°03' E 002°21'8 9.1
2015-May-20 10:33N 51°03' E 002°08'11 8.7
2015-May-20 09:18N 51°02' E 001°51'1 1.5
2015-May-20 08:29N 51°03' E 001°50'0 0.0
2015-May-20 07:17N 51°03' E 001°51'0 0.0
2015-May-20 06:32N 51°03' E 001°51'0 0.1
2015-May-20 05:24N 51°03' E 001°51'0 0.1
2015-May-20 04:32N 51°03' E 001°51'0 0.0
2015-May-20 03:32N 51°03' E 001°51'0 0.0
2015-May-20 02:32N 51°03' E 001°51'0 0.0
2015-May-20 01:20N 51°03' E 001°51'0 0.0
2015-May-20 00:32N 51°03' E 001°51'0 0.0
2015-May-19 23:08N 51°03' E 001°51'0 0.1
2015-May-19 22:26N 51°03' E 001°51'0 0.1
2015-May-19 21:26N 51°03' E 001°50'0 0.0
2015-May-19 20:32N 51°03' E 001°50'0 0.0
2015-May-19 19:32N 51°03' E 001°50'0 0.0
2015-May-19 18:32N 51°03' E 001°51'0 0.2
2015-May-19 17:29N 51°03' E 001°51'0 0.1
2015-May-19 16:32N 51°03' E 001°51'0 0.0
2015-May-19 15:14N 51°03' E 001°51'0 0.0
2015-May-19 14:20N 51°03' E 001°51'0 0.0
2015-May-19 13:32N 51°03' E 001°51'0 0.0
2015-May-19 12:14N 51°03' E 001°51'0 0.1
2015-May-19 11:17N 51°03' E 001°51'0 0.1
2015-May-19 10:32N 51°03' E 001°50'1 1.5
2015-May-19 09:33N 51°05' E 001°49'8 7.7
2015-May-19 08:32N 51°03' E 002°02'1111.0
2015-May-19 07:33N 51°04' E 002°19'1 1.2
2015-May-19 06:33N 51°03' E 002°21'0 0.2
2015-May-19 04:22N 51°03' E 002°21'0 0.0
2015-May-19 03:31N 51°03' E 002°21'0 0.0
2015-May-19 02:27N 51°03' E 002°21'0 0.0
2015-May-19 01:31N 51°03' E 002°21'0 0.0
2015-May-19 00:30N 51°03' E 002°21'0 0.0
2015-May-18 23:29N 51°03' E 002°21'0 0.0
2015-May-18 22:32N 51°03' E 002°21'0 0.0
2015-May-18 21:33N 51°03' E 002°21'0 0.0
2015-May-18 20:30N 51°03' E 002°21'0 0.0
2015-May-18 19:32N 51°03' E 002°21'0 0.0
2015-May-18 18:29N 51°03' E 002°21'0 0.4
2015-May-18 17:32N 51°03' E 002°21'5 4.0
2015-May-18 16:15N 51°04' E 002°13'811.5
2015-May-18 15:31N 51°02' E 001°60'7 5.8
2015-May-18 14:22N 51°05' E 001°50'0 0.4
2015-May-18 13:16N 51°05' E 001°50'0 0.1
2015-May-18 12:28N 51°05' E 001°50'0 0.0
2015-May-18 11:07N 51°05' E 001°50'0 0.0
2015-May-18 10:31N 51°05' E 001°50'0 0.0
2015-May-18 09:25N 51°05' E 001°50'0 0.1
2015-May-18 08:10N 51°05' E 001°49'0 0.0
2015-May-18 07:31N 51°05' E 001°49'0 0.1
2015-May-18 06:31N 51°05' E 001°49'0 0.2
2015-May-18 05:31N 51°05' E 001°50'0 0.0
2015-May-18 04:31N 51°05' E 001°50'0 0.0
2015-May-18 03:28N 51°05' E 001°50'0 0.0
2015-May-18 02:28N 51°05' E 001°50'0 0.0
2015-May-18 01:25N 51°05' E 001°50'0 0.0
2015-May-18 00:28N 51°05' E 001°50'0 0.0
2015-May-17 23:19N 51°05' E 001°50'0 0.0
2015-May-17 22:16N 51°05' E 001°50'0 0.0
2015-May-17 21:28N 51°05' E 001°50'0 0.2
2015-May-17 20:31N 51°05' E 001°49'0 0.0
2015-May-17 19:31N 51°05' E 001°49'0 0.1
2015-May-17 18:22N 51°05' E 001°50'0 0.0
2015-May-17 17:28N 51°05' E 001°50'0 0.1
2015-May-17 16:28N 51°05' E 001°50'0 0.1
2015-May-17 15:22N 51°05' E 001°50'3 3.4
2015-May-17 14:33N 51°03' E 001°52'9 9.1
2015-May-17 13:33N 51°03' E 002°07'4 0.4
2015-May-17 03:23N 51°01' E 002°11'0 0.0
2015-May-16 23:32N 51°01' E 002°11'2 1.4
2015-May-16 22:28N 51°02' E 002°10'1112.3
2015-May-16 21:33N 51°03' E 001°52'1 1.4
2015-May-16 20:34N 51°03' E 001°50'0 0.1
2015-May-16 19:33N 51°03' E 001°50'5 4.8
2015-May-16 18:33N 51°04' E 001°42'1010.1
2015-May-16 17:33N 51°14' E 001°46'1313.2
2015-May-16 16:33N 51°25' E 001°57'1110.7
2015-May-16 15:33N 51°21' E 002°14'1110.7
2015-May-16 14:33N 51°23' E 002°31'1010.3
2015-May-16 13:33N 51°22' E 002°47'10 9.2
2015-May-16 12:31N 51°24' E 003°02'16 8.1
2015-May-16 10:33N 51°25' E 003°28'7 6.8
2015-May-16 09:33N 51°26' E 003°38'3 2.8
2015-May-16 08:25N 51°27' E 003°43'0 0.0
2015-May-16 07:31N 51°27' E 003°43'0 0.0
2015-May-16 06:31N 51°27' E 003°43'0 0.0
2015-May-16 05:31N 51°27' E 003°43'0 0.0
2015-May-16 04:07N 51°27' E 003°43'0 0.0
2015-May-16 03:31N 51°27' E 003°43'0 0.0
2015-May-16 02:31N 51°27' E 003°43'0 0.0
2015-May-16 01:25N 51°27' E 003°43'0 0.0
2015-May-16 00:19N 51°27' E 003°43'0 0.0
2015-May-15 23:25N 51°27' E 003°43'0 0.0
2015-May-15 22:16N 51°27' E 003°43'0 0.0
2015-May-15 20:22N 51°27' E 003°43'0 0.0
2015-May-15 18:19N 51°27' E 003°43'0 0.0
2015-May-15 17:33N 51°27' E 003°43'4 4.4
2015-May-15 16:33N 51°26' E 003°36'9 9.2
2015-May-15 15:33N 51°32' E 003°25'20 9.4
2015-May-15 13:27N 51°51' E 003°15'20 9.9
2015-May-15 11:26N 52°10' E 003°22'12710.7
2015-May-14 23:33N 54°03' E 004°58'1211.4
2015-May-14 22:32N 54°13' E 005°08'7911.0
2015-May-14 15:20N 55°14' E 006°37'911.2
2015-May-14 14:33N 55°22' E 006°42'1111.1
2015-May-14 13:33N 55°32' E 006°49'17110.1
2015-May-13 20:31N 57°50' E 009°53'10 9.3
2015-May-13 19:28N 57°50' E 010°11'9 9.4
2015-May-13 18:33N 57°51' E 010°27'10 9.6
2015-May-13 17:31N 57°51' E 010°46'9 9.6
2015-May-13 16:33N 57°48' E 011°02'9 8.9
2015-May-13 15:33N 57°43' E 011°17'9 8.9
2015-May-13 14:33N 57°38' E 011°31'7 6.7
2015-May-13 13:31N 57°34' E 011°40'0 0.1
2015-May-13 12:28N 57°34' E 011°40'0 0.0
2015-May-13 11:31N 57°34' E 011°40'0 0.0
2015-May-13 10:22N 57°34' E 011°40'0 0.0
2015-May-13 09:28N 57°34' E 011°40'0 0.0
2015-May-13 08:25N 57°34' E 011°40'0 0.0
2015-May-13 07:28N 57°34' E 011°40'0 0.0
2015-May-13 06:31N 57°34' E 011°40'0 0.0
2015-May-13 05:31N 57°34' E 011°40'0 0.0
2015-May-13 04:31N 57°34' E 011°40'0 0.0
2015-May-13 03:28N 57°34' E 011°40'0 0.0
2015-May-13 02:31N 57°34' E 011°40'0 0.0
2015-May-13 01:31N 57°34' E 011°40'0 0.0
2015-May-13 00:32N 57°34' E 011°40'0 0.0
2015-May-12 23:29N 57°34' E 011°40'0 0.0
2015-May-12 22:32N 57°34' E 011°40'0 0.0
2015-May-12 21:32N 57°34' E 011°40'0 0.0
2015-May-12 20:32N 57°34' E 011°40'0 0.0
2015-May-12 19:29N 57°34' E 011°40'0 0.0
2015-May-12 18:32N 57°34' E 011°40'0 0.0
2015-May-12 17:29N 57°34' E 011°40'0 0.0
2015-May-12 16:32N 57°34' E 011°40'0 0.0
2015-May-12 15:32N 57°34' E 011°40'0 0.0
2015-May-12 14:32N 57°34' E 011°40'0 0.1
2015-May-12 13:26N 57°34' E 011°40'0 0.0
2015-May-12 12:32N 57°34' E 011°40'0 0.0
2015-May-12 11:29N 57°34' E 011°40'0 0.0
2015-May-12 10:32N 57°34' E 011°40'  

Dump ship's entire track history